Xin'an, China
Current Conditions -  °F | °C
As of 4:00 PM on Monday 20 Oct 2014 (Local Time) from ZYCC Reporting Station
Clear Clear  
Wind Chill: 37°   Ceiling: Unl
Heat Index: 43°   Visibility: 4mi
Dew Point: -8°   Wind: 11mph
Humidity: 12%   Direction: 320°NW
Pressure: 30.27"   Gusts: NA
Location:  43.75°N, 125.68°E
Report Text: ZYCC 200800Z 32005MPS 290V350 6000 NSC 06/M22 Q1025 NOSIG
Loading
Personal Weather Stations






























Interactive Weather Map
Tropical Storm Tracking
New forecast layout! Learn more

10-Day Weather Forecast

Advertisements
Track Severe Weather on mobile